Time;durP1;ratioP1;P1;durP2;ratioP2;P2;SDS_P1;SDS_P2;PMS_P1;PMS_P2;Temp;Humidity;BMP_temperature;BMP_pressure;BME280_temperature;BME280_humidity;BME280_pressure;Samples;Min_cycle;Max_cycle;Signal;HPM_P1;HPM_P2
2023/08/20 00:01:42;;;;;;;4.85;4.15;;;;;;;;;;5099965;28;20385;-84
2023/08/20 00:04:08;;;;;;;4.28;3.92;;;;;;;;;;5100172;28;20370;-84
2023/08/20 00:06:35;;;;;;;5.07;4.57;;;;;;;;;;5100099;28;20385;-84
2023/08/20 00:09:01;;;;;;;4.80;4.40;;;;;;;;;;5088962;28;20410;-84
2023/08/20 00:11:27;;;;;;;4.22;3.92;;;;;;;;;;5081741;28;20384;-84
2023/08/20 00:13:53;;;;;;;4.22;3.83;;;;;;;;;;5093773;28;20416;-84
2023/08/20 00:16:19;;;;;;;4.80;4.40;;;;;;;;;;5103116;28;20386;-84
2023/08/20 00:18:45;;;;;;;5.47;4.32;;;;;;;;;;5094977;28;20380;-84
2023/08/20 00:21:11;;;;;;;4.63;4.22;;;;;;;;;;5089538;28;20419;-84
2023/08/20 00:23:38;;;;;;;4.88;4.43;;;;;;;;;;5086425;28;20376;-84
2023/08/20 00:26:04;;;;;;;4.93;4.20;;;;;;;;;;5093037;28;20378;-84
2023/08/20 00:28:30;;;;;;;4.85;4.30;;;;;;;;;;5080909;28;20406;-84
2023/08/20 00:30:56;;;;;;;5.25;4.22;;;;;;;;;;5091699;28;20424;-84
2023/08/20 00:33:22;;;;;;;4.13;3.83;;;;;;;;;;5082742;28;20380;-84
2023/08/20 00:35:48;;;;;;;3.90;3.60;;;;;;;;;;5090085;28;20860;-84
2023/08/20 00:38:14;;;;;;;4.40;4.00;;;;;;;;;;5095332;28;20390;-84
2023/08/20 00:40:40;;;;;;;4.45;4.05;;;;;;;;;;5100820;28;20393;-84
2023/08/20 00:43:06;;;;;;;4.60;4.20;;;;;;;;;;5099711;28;20447;-84
2023/08/20 00:45:32;;;;;;;4.47;4.10;;;;;;;;;;5100075;28;20398;-84
2023/08/20 00:47:58;;;;;;;5.72;4.45;;;;;;;;;;5100669;28;20382;-84
2023/08/20 00:50:24;;;;;;;5.27;4.30;;;;;;;;;;5100911;28;20429;-84
2023/08/20 00:52:50;;;;;;;4.30;3.90;;;;;;;;;;5092568;28;20387;-84
2023/08/20 00:55:17;;;;;;;4.60;4.20;;;;;;;;;;5103287;28;20434;-84
2023/08/20 00:57:43;;;;;;;6.03;4.45;;;;;;;;;;5086901;28;20380;-84
2023/08/20 01:00:10;;;;;;;4.90;4.30;;;;;;;;;;5093188;28;20409;-83
2023/08/20 01:02:40;;;;;;;5.10;4.60;;;;;;;;;;5093362;28;20434;-84
2023/08/20 01:05:08;;;;;;;4.93;4.43;;;;;;;;;;5092183;28;20386;-84
2023/08/20 01:07:40;;;;;;;4.95;4.60;;;;;;;;;;5093777;28;20375;-84
2023/08/20 01:10:09;;;;;;;4.93;4.53;;;;;;;;;;5082010;28;20411;-84
2023/08/20 01:12:36;;;;;;;4.65;4.10;;;;;;;;;;5093165;28;20374;-84
2023/08/20 01:15:02;;;;;;;4.80;4.40;;;;;;;;;;5085710;28;20844;-84
2023/08/20 01:17:29;;;;;;;4.97;4.47;;;;;;;;;;5073367;28;20442;-84
2023/08/20 01:19:55;;;;;;;4.63;4.22;;;;;;;;;;5098899;28;20465;-84
2023/08/20 01:22:39;;;;;;;5.13;4.37;;;;;;;;;;5099447;28;20398;-84
2023/08/20 01:25:11;;;;;;;4.60;4.20;;;;;;;;;;5085094;28;20382;-84
2023/08/20 01:27:56;;;;;;;5.18;4.40;;;;;;;;;;5086374;28;20384;-84
2023/08/20 01:30:22;;;;;;;4.68;4.28;;;;;;;;;;5085167;28;20457;-84
2023/08/20 01:32:50;;;;;;;4.43;4.03;;;;;;;;;;5085682;28;20858;-84
2023/08/20 01:35:16;;;;;;;4.55;4.15;;;;;;;;;;5078807;28;20443;-84
2023/08/20 01:37:42;;;;;;;5.20;4.70;;;;;;;;;;5077999;28;20388;-84
2023/08/20 01:40:12;;;;;;;4.55;4.15;;;;;;;;;;5091897;28;20457;-84
2023/08/20 01:42:38;;;;;;;5.05;4.63;;;;;;;;;;5087052;28;20387;-84
2023/08/20 01:45:05;;;;;;;4.72;4.28;;;;;;;;;;5088239;28;20383;-84
2023/08/20 01:47:31;;;;;;;5.22;4.60;;;;;;;;;;5098791;28;20382;-84
2023/08/20 01:49:58;;;;;;;4.70;4.30;;;;;;;;;;5098711;28;20416;-84
2023/08/20 01:52:24;;;;;;;4.43;4.03;;;;;;;;;;5098838;28;20382;-84
2023/08/20 01:54:50;;;;;;;4.70;4.30;;;;;;;;;;5098591;28;20396;-84
2023/08/20 01:57:16;;;;;;;4.55;4.15;;;;;;;;;;5085385;28;20848;-84
2023/08/20 01:59:42;;;;;;;5.10;4.30;;;;;;;;;;5087800;28;20378;-84
2023/08/20 02:02:08;;;;;;;4.80;4.40;;;;;;;;;;5095019;28;20503;-84
2023/08/20 02:04:34;;;;;;;4.13;3.78;;;;;;;;;;5088915;28;20869;-84
2023/08/20 02:07:00;;;;;;;4.57;4.25;;;;;;;;;;5078726;28;20387;-84
2023/08/20 02:09:26;;;;;;;4.75;4.35;;;;;;;;;;5095980;28;20798;-84
2023/08/20 02:11:52;;;;;;;4.35;3.95;;;;;;;;;;5086222;28;20457;-84
2023/08/20 02:14:18;;;;;;;4.03;3.70;;;;;;;;;;5083553;28;20387;-84
2023/08/20 02:16:46;;;;;;;4.17;3.77;;;;;;;;;;5091434;28;20729;-84
2023/08/20 02:19:12;;;;;;;4.45;4.03;;;;;;;;;;5090235;28;20390;-84
2023/08/20 02:21:38;;;;;;;4.38;4.03;;;;;;;;;;5097800;28;20442;-84
2023/08/20 02:24:04;;;;;;;4.22;3.92;;;;;;;;;;5097501;28;20386;-84
2023/08/20 02:26:30;;;;;;;4.22;3.90;;;;;;;;;;5084238;28;20417;-84
2023/08/20 02:28:56;;;;;;;5.03;4.03;;;;;;;;;;5086075;28;20500;-84
2023/08/20 02:31:22;;;;;;;4.38;3.90;;;;;;;;;;5083016;28;20864;-84
2023/08/20 02:33:49;;;;;;;4.75;4.35;;;;;;;;;;5097132;28;20488;-84
2023/08/20 02:36:15;;;;;;;3.97;3.70;;;;;;;;;;5094703;28;20379;-84
2023/08/20 02:38:41;;;;;;;4.32;4.00;;;;;;;;;;5095921;28;20411;-84
2023/08/20 02:41:07;;;;;;;4.32;4.03;;;;;;;;;;5096482;28;20469;-84
2023/08/20 02:43:33;;;;;;;4.55;4.15;;;;;;;;;;5093464;28;20414;-83
2023/08/20 02:45:59;;;;;;;5.00;4.47;;;;;;;;;;5086201;28;20382;-84
2023/08/20 02:48:26;;;;;;;4.57;4.18;;;;;;;;;;5083584;28;20364;-84
2023/08/20 02:50:54;;;;;;;4.32;4.03;;;;;;;;;;5097069;28;20449;-84
2023/08/20 02:53:20;;;;;;;4.20;3.80;;;;;;;;;;5096593;28;20401;-84
2023/08/20 02:55:46;;;;;;;4.22;3.90;;;;;;;;;;5086831;28;20438;-84
2023/08/20 02:58:12;;;;;;;4.40;3.90;;;;;;;;;;5077679;28;20372;-84
2023/08/20 03:00:38;;;;;;;4.95;4.45;;;;;;;;;;5080311;28;20836;-84
2023/08/20 03:03:07;;;;;;;4.68;4.28;;;;;;;;;;5079335;28;20411;-84
2023/08/20 03:05:33;;;;;;;4.93;4.55;;;;;;;;;;5087658;28;20387;-84
2023/08/20 03:07:59;;;;;;;4.45;4.15;;;;;;;;;;5089367;28;20476;-84
2023/08/20 03:10:26;;;;;;;4.85;4.55;;;;;;;;;;5090396;28;20423;-84
2023/08/20 03:12:52;;;;;;;4.22;3.90;;;;;;;;;;5078976;28;20488;-84
2023/08/20 03:15:18;;;;;;;5.25;4.45;;;;;;;;;;5098092;28;20390;-84
2023/08/20 03:17:44;;;;;;;4.60;4.20;;;;;;;;;;5091975;28;20384;-84
2023/08/20 03:20:10;;;;;;;4.70;4.40;;;;;;;;;;5100285;28;21161;-84
2023/08/20 03:22:38;;;;;;;4.63;4.23;;;;;;;;;;5087036;28;20419;-84
2023/08/20 03:25:04;;;;;;;4.63;4.22;;;;;;;;;;5099635;28;20385;-84
2023/08/20 03:27:30;;;;;;;4.65;4.22;;;;;;;;;;5100683;28;20380;-84
2023/08/20 03:29:56;;;;;;;4.57;4.18;;;;;;;;;;5100455;28;20488;-84
2023/08/20 03:32:22;;;;;;;4.87;4.53;;;;;;;;;;5098898;28;20382;-84
2023/08/20 03:34:49;;;;;;;4.43;4.13;;;;;;;;;;5099084;28;20386;-84
2023/08/20 03:37:15;;;;;;;5.78;4.30;;;;;;;;;;5073664;28;20380;-84
2023/08/20 03:39:40;;;;;;;4.13;3.83;;;;;;;;;;5094368;28;20424;-84
2023/08/20 03:42:06;;;;;;;4.70;4.30;;;;;;;;;;5099650;28;20378;-84
2023/08/20 03:44:32;;;;;;;4.57;4.18;;;;;;;;;;5099619;28;20728;-84
2023/08/20 03:46:58;;;;;;;4.95;4.55;;;;;;;;;;5084688;28;20393;-84
2023/08/20 03:49:25;;;;;;;4.57;4.10;;;;;;;;;;5098650;28;20413;-84
2023/08/20 03:51:50;;;;;;;4.80;4.40;;;;;;;;;;5099324;28;20819;-84
2023/08/20 03:54:16;;;;;;;4.70;4.30;;;;;;;;;;5099321;28;20389;-84
2023/08/20 03:56:42;;;;;;;4.47;4.07;;;;;;;;;;5089922;28;20722;-84
2023/08/20 03:59:08;;;;;;;4.35;4.05;;;;;;;;;;5080922;28;20403;-84
2023/08/20 04:01:36;;;;;;;4.70;4.30;;;;;;;;;;5079425;28;20901;-84
2023/08/20 04:04:03;;;;;;;4.30;3.90;;;;;;;;;;5089302;28;20405;-84
2023/08/20 04:06:29;;;;;;;4.60;4.20;;;;;;;;;;5081388;28;20387;-84
2023/08/20 04:08:55;;;;;;;4.53;4.13;;;;;;;;;;5083738;28;20864;-85
2023/08/20 04:11:21;;;;;;;4.60;4.20;;;;;;;;;;5077835;28;20400;-84
2023/08/20 04:13:47;;;;;;;5.63;4.68;;;;;;;;;;5088891;28;20386;-84
2023/08/20 04:16:13;;;;;;;4.82;4.40;;;;;;;;;;5099928;28;20386;-84
2023/08/20 04:18:39;;;;;;;4.70;4.10;;;;;;;;;;5091335;28;20380;-84
2023/08/20 04:21:05;;;;;;;4.60;4.23;;;;;;;;;;5094633;28;20429;-84
2023/08/20 04:23:31;;;;;;;5.07;4.57;;;;;;;;;;5099737;28;20725;-84
2023/08/20 04:25:57;;;;;;;4.90;4.50;;;;;;;;;;5099887;28;20389;-84
2023/08/20 04:28:23;;;;;;;4.57;4.18;;;;;;;;;;5099042;28;20406;-84
2023/08/20 04:30:53;;;;;;;6.20;4.30;;;;;;;;;;5099318;28;20464;-84
2023/08/20 04:33:19;;;;;;;5.13;4.57;;;;;;;;;;5092598;28;20401;-84
2023/08/20 04:35:46;;;;;;;4.80;4.38;;;;;;;;;;5099263;28;20382;-84
2023/08/20 04:38:12;;;;;;;4.67;4.27;;;;;;;;;;5099821;28;20465;-84
2023/08/20 04:40:38;;;;;;;5.13;4.73;;;;;;;;;;5099359;28;20711;-84
2023/08/20 04:43:04;;;;;;;5.03;4.53;;;;;;;;;;5099618;28;20393;-84
2023/08/20 04:45:30;;;;;;;5.15;4.75;;;;;;;;;;5099434;28;20378;-84
2023/08/20 04:47:56;;;;;;;5.07;4.50;;;;;;;;;;5100067;28;20436;-84
2023/08/20 04:50:21;;;;;;;5.18;4.68;;;;;;;;;;5085319;28;20406;-84
2023/08/20 04:52:47;;;;;;;5.95;4.93;;;;;;;;;;5100071;28;20413;-84
2023/08/20 04:55:15;;;;;;;5.20;4.80;;;;;;;;;;5098462;28;20403;-84
2023/08/20 04:57:41;;;;;;;5.10;4.60;;;;;;;;;;5079845;28;20451;-84
2023/08/20 05:00:09;;;;;;;6.32;4.45;;;;;;;;;;5079535;28;20387;-84
2023/08/20 05:02:35;;;;;;;5.70;4.60;;;;;;;;;;5088384;28;20389;-84
2023/08/20 05:05:02;;;;;;;5.00;4.60;;;;;;;;;;5096625;28;20374;-84
2023/08/20 05:07:28;;;;;;;4.88;4.55;;;;;;;;;;5084140;28;20395;-84
2023/08/20 05:09:54;;;;;;;6.00;5.20;;;;;;;;;;5083086;28;20416;-84
2023/08/20 05:12:20;;;;;;;5.47;5.10;;;;;;;;;;5094002;28;20378;-84
2023/08/20 05:14:46;;;;;;;4.90;4.50;;;;;;;;;;5098249;28;20391;-84
2023/08/20 05:17:12;;;;;;;5.78;5.30;;;;;;;;;;5094585;28;20374;-84
2023/08/20 05:19:38;;;;;;;5.63;5.22;;;;;;;;;;5105288;28;20378;-84
2023/08/20 05:22:04;;;;;;;5.70;5.25;;;;;;;;;;5095701;28;20385;-84
2023/08/20 05:24:30;;;;;;;4.85;4.47;;;;;;;;;;5097707;28;20371;-84
2023/08/20 05:27:09;;;;;;;6.53;4.93;;;;;;;;;;5091091;28;20422;-84
2023/08/20 05:29:35;;;;;;;5.40;4.90;;;;;;;;;;5091833;28;20413;-84
2023/08/20 05:32:01;;;;;;;5.25;4.80;;;;;;;;;;5078304;28;20533;-84
2023/08/20 05:34:27;;;;;;;5.00;4.65;;;;;;;;;;5090125;28;20425;-84
2023/08/20 05:36:53;;;;;;;5.20;4.80;;;;;;;;;;5097734;28;20878;-84
2023/08/20 05:39:19;;;;;;;5.00;4.55;;;;;;;;;;5099240;28;20378;-84
2023/08/20 05:41:45;;;;;;;5.88;5.38;;;;;;;;;;5098783;28;20437;-84
2023/08/20 05:44:11;;;;;;;5.60;5.10;;;;;;;;;;5098413;28;20459;-84
2023/08/20 05:46:37;;;;;;;5.20;4.80;;;;;;;;;;5098184;28;20382;-84
2023/08/20 05:49:03;;;;;;;5.53;4.93;;;;;;;;;;5098130;28;20441;-84
2023/08/20 05:51:29;;;;;;;5.07;4.63;;;;;;;;;;5096276;28;20397;-84
2023/08/20 05:53:55;;;;;;;4.82;4.50;;;;;;;;;;5096532;28;20484;-84
2023/08/20 05:56:21;;;;;;;5.63;5.22;;;;;;;;;;5087199;28;20383;-84
2023/08/20 05:58:47;;;;;;;5.50;5.00;;;;;;;;;;5080834;28;20441;-84
2023/08/20 06:01:13;;;;;;;6.53;4.85;;;;;;;;;;5089647;28;20459;-84
2023/08/20 06:03:39;;;;;;;5.55;5.00;;;;;;;;;;5091595;28;20436;-84
2023/08/20 06:06:05;;;;;;;4.80;4.47;;;;;;;;;;5087178;28;20403;-84
2023/08/20 06:08:31;;;;;;;5.10;4.70;;;;;;;;;;5091433;28;20441;-84
2023/08/20 06:10:57;;;;;;;6.78;5.90;;;;;;;;;;5083047;28;20416;-85
2023/08/20 06:13:23;;;;;;;5.50;5.00;;;;;;;;;;5085268;28;20379;-85
2023/08/20 06:15:49;;;;;;;6.35;5.85;;;;;;;;;;5097513;28;20385;-84
2023/08/20 06:18:15;;;;;;;7.10;6.30;;;;;;;;;;5096791;28;20384;-84
2023/08/20 06:20:41;;;;;;;6.93;6.30;;;;;;;;;;5096369;28;20428;-84
2023/08/20 06:23:07;;;;;;;6.25;5.65;;;;;;;;;;5096911;28;20393;-84
2023/08/20 06:25:33;;;;;;;7.03;6.33;;;;;;;;;;5092297;28;20537;-84
2023/08/20 06:27:59;;;;;;;8.40;7.27;;;;;;;;;;5084786;28;20419;-84
2023/08/20 06:30:25;;;;;;;5.93;5.43;;;;;;;;;;5088016;28;20412;-84
2023/08/20 06:32:51;;;;;;;5.72;5.18;;;;;;;;;;5094416;28;20381;-84
2023/08/20 06:35:17;;;;;;;5.38;4.88;;;;;;;;;;5085058;28;20374;-84
2023/08/20 06:37:43;;;;;;;5.80;5.20;;;;;;;;;;5102363;28;20414;-84
2023/08/20 06:40:09;;;;;;;5.15;4.75;;;;;;;;;;5088376;28;20712;-85
2023/08/20 06:42:35;;;;;;;5.38;4.88;;;;;;;;;;5103058;28;20435;-84
2023/08/20 06:45:01;;;;;;;5.72;5.22;;;;;;;;;;5088487;28;20387;-84
2023/08/20 06:47:27;;;;;;;5.25;4.78;;;;;;;;;;5102705;28;20386;-84
2023/08/20 06:49:53;;;;;;;7.97;5.32;;;;;;;;;;5101689;28;20398;-84
2023/08/20 06:52:19;;;;;;;5.30;4.80;;;;;;;;;;5087267;28;20386;-84
2023/08/20 06:54:45;;;;;;;5.47;5.00;;;;;;;;;;5101198;28;20409;-84
2023/08/20 06:57:11;;;;;;;5.97;5.10;;;;;;;;;;5088561;28;20383;-84
2023/08/20 06:59:37;;;;;;;5.35;4.85;;;;;;;;;;5090557;28;20473;-85
2023/08/20 07:02:03;;;;;;;5.47;5.07;;;;;;;;;;5099478;28;20856;-84
2023/08/20 07:04:29;;;;;;;5.50;5.03;;;;;;;;;;5088667;28;20374;-85
2023/08/20 07:06:55;;;;;;;6.03;4.93;;;;;;;;;;5087525;28;20458;-84
2023/08/20 07:09:21;;;;;;;5.43;4.93;;;;;;;;;;5099277;28;20406;-84
2023/08/20 07:11:47;;;;;;;5.40;4.90;;;;;;;;;;5071765;28;20394;-84
2023/08/20 07:14:13;;;;;;;5.45;5.05;;;;;;;;;;5102012;28;20388;-84
2023/08/20 07:16:39;;;;;;;5.90;5.40;;;;;;;;;;5099738;28;20384;-84
2023/08/20 07:19:05;;;;;;;5.60;5.10;;;;;;;;;;5099810;28;20521;-84
2023/08/20 07:21:31;;;;;;;6.03;5.20;;;;;;;;;;5086206;28;20382;-84
2023/08/20 07:23:57;;;;;;;5.35;5.00;;;;;;;;;;5101113;28;20847;-84
2023/08/20 07:26:23;;;;;;;6.55;5.90;;;;;;;;;;5100040;28;20385;-84
2023/08/20 07:28:59;;;;;;;5.93;5.38;;;;;;;;;;5091004;28;20379;-84
2023/08/20 07:31:26;;;;;;;5.82;5.20;;;;;;;;;;5095880;28;20601;-84
2023/08/20 07:33:52;;;;;;;5.88;5.38;;;;;;;;;;5100554;28;20390;-84
2023/08/20 07:36:18;;;;;;;6.22;5.63;;;;;;;;;;5100956;28;20370;-84
2023/08/20 07:38:44;;;;;;;5.75;5.35;;;;;;;;;;5086434;28;20378;-84
2023/08/20 07:41:11;;;;;;;5.57;5.07;;;;;;;;;;5094777;28;20391;-83
2023/08/20 07:43:41;;;;;;;5.47;5.07;;;;;;;;;;5083324;28;20411;-84
2023/08/20 07:46:07;;;;;;;5.38;4.85;;;;;;;;;;5087273;28;20380;-84
2023/08/20 07:48:34;;;;;;;7.20;5.27;;;;;;;;;;5083927;28;20384;-85
2023/08/20 07:51:00;;;;;;;5.68;5.18;;;;;;;;;;5092455;28;20465;-84
2023/08/20 07:53:26;;;;;;;5.22;4.82;;;;;;;;;;5094901;28;20394;-84
2023/08/20 07:55:52;;;;;;;5.28;4.88;;;;;;;;;;5098140;28;20405;-84
2023/08/20 07:58:18;;;;;;;5.13;4.70;;;;;;;;;;5079488;28;20379;-84
2023/08/20 08:00:44;;;;;;;5.43;4.82;;;;;;;;;;5093697;28;20383;-84
2023/08/20 08:03:10;;;;;;;5.38;4.88;;;;;;;;;;5081886;28;20712;-84
2023/08/20 08:05:37;;;;;;;5.23;4.80;;;;;;;;;;5088704;28;20428;-84
2023/08/20 08:08:03;;;;;;;5.63;5.13;;;;;;;;;;5096845;28;20382;-84
2023/08/20 08:10:29;;;;;;;6.57;5.28;;;;;;;;;;5084229;28;20876;-84
2023/08/20 08:12:55;;;;;;;5.03;4.72;;;;;;;;;;5096384;28;20828;-84
2023/08/20 08:15:21;;;;;;;5.73;5.00;;;;;;;;;;5098861;28;20386;-84
2023/08/20 08:17:47;;;;;;;5.03;4.57;;;;;;;;;;5098758;28;20389;-84
2023/08/20 08:20:13;;;;;;;7.25;5.03;;;;;;;;;;5096871;28;20952;-84
2023/08/20 08:22:40;;;;;;;5.28;4.80;;;;;;;;;;5084806;28;20390;-84
2023/08/20 08:25:06;;;;;;;5.93;4.85;;;;;;;;;;5091911;28;20389;-84
2023/08/20 08:27:32;;;;;;;5.35;4.90;;;;;;;;;;5087922;28;20772;-83
2023/08/20 08:29:58;;;;;;;5.60;4.80;;;;;;;;;;5096796;28;20414;-84
2023/08/20 08:32:24;;;;;;;5.10;4.70;;;;;;;;;;5099073;28;20378;-84
2023/08/20 08:34:51;;;;;;;5.30;4.80;;;;;;;;;;5083745;28;20395;-84
2023/08/20 08:37:17;;;;;;;5.57;4.75;;;;;;;;;;5087068;28;20398;-84
2023/08/20 08:39:43;;;;;;;5.35;4.85;;;;;;;;;;5100187;28;20393;-84
2023/08/20 08:42:10;;;;;;;6.07;4.78;;;;;;;;;;5099123;28;20378;-84
2023/08/20 08:44:37;;;;;;;8.18;4.85;;;;;;;;;;5100604;28;20417;-84
2023/08/20 08:47:05;;;;;;;4.90;4.40;;;;;;;;;;5081433;28;20482;-84
2023/08/20 08:49:33;;;;;;;5.90;4.70;;;;;;;;;;5080015;28;20418;-84
2023/08/20 08:52:00;;;;;;;5.75;4.35;;;;;;;;;;5096125;28;20402;-84
2023/08/20 08:54:27;;;;;;;5.75;4.93;;;;;;;;;;5099417;28;20496;-84
2023/08/20 08:56:53;;;;;;;4.78;4.38;;;;;;;;;;5089901;28;20412;-84
2023/08/20 08:59:19;;;;;;;5.28;4.78;;;;;;;;;;5086559;28;20381;-84
2023/08/20 09:01:45;;;;;;;6.50;4.50;;;;;;;;;;5100760;28;20379;-84
2023/08/20 09:04:11;;;;;;;7.60;4.43;;;;;;;;;;5096079;28;20443;-84
2023/08/20 09:06:53;;;;;;;5.60;4.45;;;;;;;;;;5087922;28;20435;-84
2023/08/20 09:09:20;;;;;;;6.35;4.72;;;;;;;;;;5097783;28;20405;-84
2023/08/20 09:11:47;;;;;;;6.20;4.63;;;;;;;;;;5082120;28;20799;-84
2023/08/20 09:14:23;;;;;;;4.90;4.40;;;;;;;;;;5085045;28;20391;-84
2023/08/20 09:16:55;;;;;;;5.10;4.38;;;;;;;;;;5079765;28;20804;-84
2023/08/20 09:19:21;;;;;;;4.68;4.20;;;;;;;;;;5093996;28;20388;-84
2023/08/20 09:21:48;;;;;;;4.70;4.13;;;;;;;;;;5099505;28;20398;-84
2023/08/20 09:24:14;;;;;;;5.17;4.00;;;;;;;;;;5099019;28;20387;-84
2023/08/20 09:26:40;;;;;;;4.53;4.10;;;;;;;;;;5099540;28;20455;-83
2023/08/20 09:29:06;;;;;;;4.60;4.20;;;;;;;;;;5100102;28;20474;-82
2023/08/20 09:31:43;;;;;;;4.60;4.00;;;;;;;;;;5100118;28;20832;-83
2023/08/20 09:34:13;;;;;;;3.97;3.67;;;;;;;;;;5099952;28;20380;-83
2023/08/20 09:36:39;;;;;;;4.50;3.95;;;;;;;;;;5093697;28;20387;-83
2023/08/20 09:39:05;;;;;;;5.95;3.85;;;;;;;;;;5099541;28;20409;-83
2023/08/20 09:41:31;;;;;;;4.22;3.83;;;;;;;;;;5085824;28;20395;-83
2023/08/20 09:43:58;;;;;;;5.60;3.90;;;;;;;;;;5088111;28;20467;-83
2023/08/20 09:46:25;;;;;;;7.13;4.13;;;;;;;;;;5102514;28;20375;-83
2023/08/20 09:48:52;;;;;;;4.78;4.30;;;;;;;;;;5095828;28;20380;-83
2023/08/20 09:51:20;;;;;;;6.13;4.43;;;;;;;;;;5090484;28;20443;-83
2023/08/20 09:53:50;;;;;;;4.70;4.20;;;;;;;;;;5084363;28;20378;-83
2023/08/20 09:56:22;;;;;;;4.10;3.70;;;;;;;;;;5094275;28;20429;-83
2023/08/20 09:58:49;;;;;;;4.20;3.80;;;;;;;;;;5078223;28;20403;-83
2023/08/20 10:01:15;;;;;;;5.90;4.00;;;;;;;;;;5086480;28;20378;-84
2023/08/20 10:03:42;;;;;;;4.70;4.20;;;;;;;;;;5093235;28;20386;-84
2023/08/20 10:06:08;;;;;;;4.57;4.17;;;;;;;;;;5085692;28;20390;-84
2023/08/20 10:08:34;;;;;;;4.88;4.40;;;;;;;;;;5099150;28;20492;-83
2023/08/20 10:11:00;;;;;;;5.88;4.25;;;;;;;;;;5083128;28;20843;-83
2023/08/20 10:13:26;;;;;;;5.53;4.20;;;;;;;;;;5086271;28;20395;-84
2023/08/20 10:15:53;;;;;;;4.57;3.88;;;;;;;;;;5081146;28;20389;-83
2023/08/20 10:18:20;;;;;;;4.30;3.95;;;;;;;;;;5077050;28;20380;-83
2023/08/20 10:20:46;;;;;;;4.83;4.30;;;;;;;;;;5076430;28;20379;-84
2023/08/20 10:23:13;;;;;;;4.68;4.20;;;;;;;;;;5080952;28;20481;-83
2023/08/20 10:25:43;;;;;;;4.53;4.13;;;;;;;;;;5097891;28;20830;-83
2023/08/20 10:28:22;;;;;;;5.78;4.07;;;;;;;;;;5097838;28;20473;-84
2023/08/20 10:31:04;;;;;;;5.20;4.07;;;;;;;;;;5089934;28;20488;-84
2023/08/20 10:33:30;;;;;;;7.65;4.03;;;;;;;;;;5096985;28;20400;-83
2023/08/20 10:35:56;;;;;;;4.97;3.50;;;;;;;;;;5097602;28;20389;-83
2023/08/20 10:38:23;;;;;;;4.50;3.72;;;;;;;;;;5083419;28;20430;-84
2023/08/20 10:40:52;;;;;;;3.97;3.63;;;;;;;;;;5088537;28;20466;-83
2023/08/20 10:43:44;;;;;;;4.65;3.90;;;;;;;;;;5078087;28;20383;-83
2023/08/20 10:46:20;;;;;;;6.80;3.60;;;;;;;;;;5093669;28;20434;-83
2023/08/20 10:48:48;;;;;;;4.32;3.60;;;;;;;;;;5093758;28;20388;-81
2023/08/20 10:51:17;;;;;;;3.80;3.40;;;;;;;;;;5087594;28;20421;-83
2023/08/20 10:53:44;;;;;;;7.47;3.83;;;;;;;;;;5096741;28;20406;-84
2023/08/20 10:56:15;;;;;;;5.10;3.80;;;;;;;;;;5094180;28;20390;-83
2023/08/20 10:58:47;;;;;;;4.78;3.72;;;;;;;;;;5079016;28;20477;-83
2023/08/20 11:01:20;;;;;;;6.10;3.88;;;;;;;;;;5088842;28;20376;-83
2023/08/20 11:03:46;;;;;;;3.90;3.58;;;;;;;;;;5093666;28;20778;-83
2023/08/20 11:06:13;;;;;;;3.70;3.35;;;;;;;;;;5097585;28;20379;-83
2023/08/20 11:08:40;;;;;;;3.57;3.27;;;;;;;;;;5097925;28;20727;-83
2023/08/20 11:11:06;;;;;;;5.07;3.70;;;;;;;;;;5081082;28;20437;-83
2023/08/20 11:13:33;;;;;;;3.97;3.30;;;;;;;;;;5085722;28;20809;-83
2023/08/20 11:16:00;;;;;;;4.07;3.60;;;;;;;;;;5096741;28;20377;-83
2023/08/20 11:18:26;;;;;;;5.28;3.53;;;;;;;;;;5084090;28;20387;-83
2023/08/20 11:20:52;;;;;;;3.83;3.30;;;;;;;;;;5083886;28;20404;-83
2023/08/20 11:23:18;;;;;;;4.05;3.20;;;;;;;;;;5080759;28;20393;-83
2023/08/20 11:25:44;;;;;;;5.17;3.20;;;;;;;;;;5100408;28;20393;-83
2023/08/20 11:28:10;;;;;;;5.43;3.40;;;;;;;;;;5083699;28;20450;-83
2023/08/20 11:30:36;;;;;;;4.65;3.80;;;;;;;;;;5088552;28;20423;-83
2023/08/20 11:33:02;;;;;;;4.00;3.33;;;;;;;;;;5084120;28;20404;-83
2023/08/20 11:35:28;;;;;;;5.15;3.40;;;;;;;;;;5090877;28;20385;-83
2023/08/20 11:37:54;;;;;;;5.18;3.10;;;;;;;;;;5101522;28;20393;-83
2023/08/20 11:40:24;;;;;;;4.88;3.40;;;;;;;;;;5063002;28;20380;-83
2023/08/20 11:42:50;;;;;;;3.63;3.33;;;;;;;;;;5092231;28;20390;-83
2023/08/20 11:45:16;;;;;;;4.90;3.20;;;;;;;;;;5086297;28;20378;-83
2023/08/20 11:47:42;;;;;;;3.97;3.58;;;;;;;;;;5100617;28;20510;-83
2023/08/20 11:50:09;;;;;;;3.42;3.13;;;;;;;;;;5086292;28;20411;-83
2023/08/20 11:52:36;;;;;;;5.22;3.63;;;;;;;;;;5100465;28;20471;-83
2023/08/20 11:55:03;;;;;;;4.20;3.25;;;;;;;;;;5100749;28;20378;-83
2023/08/20 11:57:29;;;;;;;6.10;3.30;;;;;;;;;;5085190;28;20861;-83
2023/08/20 11:59:55;;;;;;;4.22;3.20;;;;;;;;;;5091282;28;20367;-83
2023/08/20 12:02:28;;;;;;;4.32;3.05;;;;;;;;;;5085352;28;20390;-83
2023/08/20 12:04:59;;;;;;;3.75;3.13;;;;;;;;;;5088778;28;20380;-83
2023/08/20 12:07:26;;;;;;;3.92;2.83;;;;;;;;;;5079613;28;20393;-83
2023/08/20 12:09:53;;;;;;;3.33;2.95;;;;;;;;;;5094200;28;20404;-83
2023/08/20 12:12:20;;;;;;;3.72;3.03;;;;;;;;;;5082704;28;20466;-83
2023/08/20 12:14:47;;;;;;;4.50;3.30;;;;;;;;;;5084035;28;20798;-83
2023/08/20 12:17:13;;;;;;;4.13;3.05;;;;;;;;;;5091582;28;20376;-83
2023/08/20 12:19:39;;;;;;;4.97;2.70;;;;;;;;;;5079258;28;20386;-83
2023/08/20 12:22:05;;;;;;;3.22;2.72;;;;;;;;;;5079748;28;20527;-83
2023/08/20 12:24:30;;;;;;;3.22;2.38;;;;;;;;;;5094408;28;20386;-82
2023/08/20 12:26:57;;;;;;;3.73;2.40;;;;;;;;;;5099475;28;20386;-83
2023/08/20 12:29:23;;;;;;;4.07;2.30;;;;;;;;;;5068840;28;20416;-83
2023/08/20 12:31:49;;;;;;;2.70;2.45;;;;;;;;;;5073724;28;20402;-82
2023/08/20 12:34:15;;;;;;;3.72;2.60;;;;;;;;;;5079924;28;20615;-83
2023/08/20 12:36:42;;;;;;;3.58;2.70;;;;;;;;;;5081148;28;20470;-83
2023/08/20 12:39:08;;;;;;;3.38;2.38;;;;;;;;;;5086088;28;20739;-82
2023/08/20 12:41:36;;;;;;;4.30;2.75;;;;;;;;;;5078776;28;20390;-83
2023/08/20 12:44:02;;;;;;;2.83;2.47;;;;;;;;;;5086117;28;20505;-82
2023/08/20 12:46:28;;;;;;;2.33;2.05;;;;;;;;;;5067586;28;20376;-83
2023/08/20 12:48:54;;;;;;;3.65;2.42;;;;;;;;;;5098080;28;20392;-82
2023/08/20 12:51:20;;;;;;;3.30;2.40;;;;;;;;;;5086865;28;20420;-83
2023/08/20 12:53:46;;;;;;;3.33;2.60;;;;;;;;;;5096212;28;20382;-82
2023/08/20 12:56:13;;;;;;;4.40;2.50;;;;;;;;;;5088985;28;20383;-82
2023/08/20 12:58:39;;;;;;;3.10;2.50;;;;;;;;;;5094314;28;20420;-83
2023/08/20 13:01:05;;;;;;;2.90;2.35;;;;;;;;;;5098761;28;20437;-82
2023/08/20 13:03:31;;;;;;;2.47;2.13;;;;;;;;;;5084531;28;20388;-83
2023/08/20 13:05:58;;;;;;;2.47;2.03;;;;;;;;;;5084024;28;20370;-82
2023/08/20 13:08:25;;;;;;;3.58;2.10;;;;;;;;;;5086335;28;20376;-82
2023/08/20 13:10:55;;;;;;;4.00;2.40;;;;;;;;;;5081496;28;20412;-82
2023/08/20 13:13:21;;;;;;;2.80;2.30;;;;;;;;;;5098732;28;20381;-83
2023/08/20 13:15:47;;;;;;;4.30;2.05;;;;;;;;;;5098672;28;20381;-83
2023/08/20 13:18:14;;;;;;;4.05;2.00;;;;;;;;;;5084321;28;20379;-82
2023/08/20 13:20:40;;;;;;;2.60;2.00;;;;;;;;;;5098180;28;20405;-82
2023/08/20 13:23:06;;;;;;;3.15;1.77;;;;;;;;;;5083422;28;20875;-84
2023/08/20 13:25:32;;;;;;;2.30;1.90;;;;;;;;;;5097905;28;20839;-83
2023/08/20 13:27:58;;;;;;;4.05;1.88;;;;;;;;;;5097656;28;20378;-83
2023/08/20 13:30:24;;;;;;;2.70;1.90;;;;;;;;;;5097769;28;20868;-83
2023/08/20 13:32:51;;;;;;;2.88;1.90;;;;;;;;;;5097000;28;20397;-83
2023/08/20 13:35:17;;;;;;;2.80;1.73;;;;;;;;;;5095202;28;20468;-83
2023/08/20 13:37:43;;;;;;;3.78;1.73;;;;;;;;;;5083372;28;20379;-83
2023/08/20 13:40:10;;;;;;;2.67;1.87;;;;;;;;;;5090300;28;20380;-82
2023/08/20 13:42:36;;;;;;;3.67;1.67;;;;;;;;;;5072610;28;20491;-83
2023/08/20 13:45:02;;;;;;;2.63;1.70;;;;;;;;;;5092338;28;20455;-82
2023/08/20 13:47:28;;;;;;;3.40;1.60;;;;;;;;;;5098777;28;20378;-83
2023/08/20 13:49:54;;;;;;;2.30;1.70;;;;;;;;;;5098555;28;20883;-83
2023/08/20 13:52:20;;;;;;;2.40;1.70;;;;;;;;;;5083595;28;20381;-83
2023/08/20 13:54:46;;;;;;;2.40;1.73;;;;;;;;;;5086703;28;20405;-83
2023/08/20 13:57:12;;;;;;;3.65;2.10;;;;;;;;;;5084604;28;20374;-83
2023/08/20 13:59:38;;;;;;;2.80;1.95;;;;;;;;;;5099098;28;20397;-83
2023/08/20 14:02:05;;;;;;;2.92;2.00;;;;;;;;;;5098768;28;20859;-83
2023/08/20 14:04:30;;;;;;;3.65;1.80;;;;;;;;;;5098298;28;20378;-83
2023/08/20 14:06:56;;;;;;;2.67;1.63;;;;;;;;;;5085756;28;20427;-83
2023/08/20 14:09:22;;;;;;;2.05;1.60;;;;;;;;;;5082320;28;20824;-83
2023/08/20 14:11:48;;;;;;;2.63;1.70;;;;;;;;;;5089068;28;20436;-83
2023/08/20 14:14:14;;;;;;;3.15;1.88;;;;;;;;;;5067175;28;20402;-83
2023/08/20 14:16:40;;;;;;;3.50;1.85;;;;;;;;;;5085724;28;20382;-83
2023/08/20 14:19:07;;;;;;;3.50;1.98;;;;;;;;;;5085719;28;20774;-83
2023/08/20 14:21:32;;;;;;;2.20;2.00;;;;;;;;;;5082262;28;20723;-83
2023/08/20 14:23:58;;;;;;;8.27;7.60;;;;;;;;;;5097630;28;20842;-83
2023/08/20 14:26:25;;;;;;;2.65;1.60;;;;;;;;;;5083377;28;20392;-83
2023/08/20 14:28:51;;;;;;;2.13;1.60;;;;;;;;;;5099074;28;20382;-83
2023/08/20 14:31:18;;;;;;;4.25;1.90;;;;;;;;;;5083157;28;20450;-83
2023/08/20 14:33:44;;;;;;;3.03;1.90;;;;;;;;;;5091992;28;20386;-83
2023/08/20 14:36:10;;;;;;;2.55;1.70;;;;;;;;;;5084655;28;20371;-83
2023/08/20 14:38:36;;;;;;;2.83;1.98;;;;;;;;;;5077543;28;20392;-83
2023/08/20 14:41:03;;;;;;;2.65;1.73;;;;;;;;;;5077555;28;20429;-83